createdAt,value
2024-04-08T12:48:58.685Z,3.47
2024-04-08T12:51:26.103Z,3.33
2024-04-08T12:53:57.091Z,3.13
2024-04-08T12:56:24.760Z,3.45
2024-04-08T12:58:57.794Z,3.70
2024-04-08T13:01:28.293Z,2.83
2024-04-08T13:03:58.294Z,3.40
2024-04-08T13:06:28.351Z,3.53
2024-04-08T13:08:55.545Z,3.45
2024-04-08T13:11:25.322Z,3.20
2024-04-08T13:13:52.520Z,3.30
2024-04-08T13:16:22.283Z,3.45
2024-04-08T13:18:49.466Z,3.15
2024-04-08T13:21:21.973Z,3.40
2024-04-08T13:23:49.289Z,3.20
2024-04-08T13:26:19.072Z,3.53
2024-04-08T13:28:46.548Z,5.30
2024-04-08T13:31:17.147Z,3.10
2024-04-08T13:33:44.534Z,3.70
2024-04-08T13:36:14.520Z,3.97
2024-04-08T13:38:44.233Z,3.08
2024-04-08T13:41:13.949Z,3.40
2024-04-08T13:43:44.376Z,3.88
2024-04-08T13:46:15.760Z,3.72
2024-04-08T13:48:44.513Z,3.45
2024-04-08T13:51:14.530Z,3.60
2024-04-08T13:53:44.467Z,3.45
2024-04-08T13:56:14.378Z,3.30
2024-04-08T13:58:41.642Z,3.47
2024-04-08T14:01:11.370Z,3.50
2024-04-08T14:03:38.612Z,3.55
2024-04-08T14:06:09.929Z,3.22
2024-04-08T14:08:37.201Z,3.75
2024-04-08T14:11:09.557Z,2.90
2024-04-08T14:13:37.543Z,3.50
2024-04-08T14:16:08.039Z,3.63
2024-04-08T14:18:35.318Z,3.40
2024-04-08T14:21:05.101Z,3.45
2024-04-08T14:23:32.316Z,3.53
2024-04-08T14:26:01.990Z,3.33
2024-04-08T14:28:31.873Z,3.70
2024-04-08T14:31:01.559Z,3.10
2024-04-08T14:33:28.860Z,3.70
2024-04-08T14:35:59.031Z,3.65
2024-04-08T14:38:46.811Z,3.83
2024-04-08T14:41:36.449Z,3.65
2024-04-08T14:44:14.494Z,4.03
2024-04-08T14:46:44.093Z,4.13
2024-04-08T14:49:14.218Z,3.72
2024-04-08T14:51:43.176Z,3.63
2024-04-08T14:54:16.946Z,4.00
2024-04-08T14:56:45.442Z,3.75
2024-04-08T14:59:17.978Z,3.90
2024-04-08T15:01:45.079Z,3.65
2024-04-08T15:04:14.846Z,3.72
2024-04-08T15:06:42.467Z,3.45
2024-04-08T15:09:12.212Z,4.00
2024-04-08T15:11:39.634Z,4.47
2024-04-08T15:14:10.958Z,3.40
2024-04-08T15:16:41.067Z,3.75
2024-04-08T15:19:10.959Z,4.22
2024-04-08T15:21:38.175Z,3.70
2024-04-08T15:24:10.678Z,3.53
2024-04-08T15:26:37.907Z,4.30
2024-04-08T15:29:07.964Z,5.05
2024-04-08T15:31:35.084Z,4.05
2024-04-08T15:34:09.344Z,3.72
2024-04-08T15:36:36.615Z,4.10
2024-04-08T15:39:06.477Z,3.53
2024-04-08T15:41:33.726Z,3.90
2024-04-08T15:44:03.932Z,3.40
2024-04-08T15:46:33.196Z,3.85
2024-04-08T15:49:03.122Z,4.30
2024-04-08T15:51:33.234Z,3.90
2024-04-08T15:54:05.765Z,3.70
2024-04-08T15:56:32.879Z,4.15
2024-04-08T15:59:02.949Z,3.35
2024-04-08T16:01:30.129Z,4.00
2024-04-08T16:04:00.190Z,3.53
2024-04-08T16:06:27.495Z,4.10
2024-04-08T16:09:00.121Z,3.58
2024-04-08T16:11:27.300Z,4.32
2024-04-08T16:13:57.281Z,3.75
2024-04-08T16:16:24.494Z,3.50
2024-04-08T16:18:56.987Z,4.25
2024-04-08T16:21:25.519Z,3.80
2024-04-08T16:23:57.142Z,3.50
2024-04-08T16:26:27.011Z,3.97
2024-04-08T16:29:01.154Z,4.75
2024-04-08T16:31:32.771Z,3.80
2024-04-08T16:34:03.309Z,4.43
2024-04-08T16:36:31.793Z,3.63
2024-04-08T16:39:02.845Z,5.20
2024-04-08T16:41:32.561Z,4.28
2024-04-08T16:44:05.490Z,3.80
2024-04-08T16:46:32.593Z,4.70
2024-04-08T16:49:02.849Z,4.18
2024-04-08T16:51:30.742Z,4.25
2024-04-08T16:54:01.275Z,4.10
2024-04-08T16:56:32.034Z,4.22
2024-04-08T16:59:08.930Z,4.65
2024-04-08T17:01:37.753Z,4.13
2024-04-08T17:04:08.204Z,4.35
2024-04-08T17:06:39.349Z,3.75
2024-04-08T17:09:12.112Z,3.97
2024-04-08T17:11:39.363Z,4.75
2024-04-08T17:14:12.112Z,4.30
2024-04-08T17:16:39.212Z,3.50
2024-04-08T17:19:09.419Z,3.83
2024-04-08T17:21:38.981Z,4.05
2024-04-08T17:24:09.988Z,3.90
2024-04-08T17:26:38.010Z,4.13
2024-04-08T17:29:07.672Z,3.67
2024-04-08T17:31:37.891Z,3.60
2024-04-08T17:34:07.893Z,3.67
2024-04-08T17:36:35.904Z,4.10
2024-04-08T17:39:06.152Z,3.95
2024-04-08T17:41:33.753Z,5.00
2024-04-08T17:44:04.152Z,4.97
2024-04-08T17:46:34.231Z,6.00
2024-04-08T17:49:07.899Z,4.82
2024-04-08T17:51:36.058Z,4.80
2024-04-08T17:54:05.982Z,4.57
2024-04-08T17:56:33.945Z,5.40
2024-04-08T17:59:04.471Z,4.70
2024-04-08T18:01:31.765Z,4.93
2024-04-08T18:04:01.937Z,4.88
2024-04-08T18:06:31.811Z,4.47
2024-04-08T18:09:02.056Z,4.68
2024-04-08T18:11:29.270Z,4.85
2024-04-08T18:13:59.460Z,4.55
2024-04-08T18:16:28.040Z,4.85
2024-04-08T18:19:01.892Z,4.57
2024-04-08T18:21:32.535Z,4.43
2024-04-08T18:24:02.947Z,4.88
2024-04-08T18:26:30.097Z,4.85
2024-04-08T18:29:01.007Z,4.68
2024-04-08T18:31:28.686Z,4.60
2024-04-08T18:33:58.481Z,4.90
2024-04-08T18:36:26.206Z,4.82
2024-04-08T18:38:58.746Z,5.32
2024-04-08T18:41:26.296Z,5.03
2024-04-08T18:43:56.193Z,4.28
2024-04-08T18:46:25.005Z,4.88
2024-04-08T18:48:55.947Z,5.88
2024-04-08T18:51:23.644Z,5.13
2024-04-08T18:53:57.103Z,4.60
2024-04-08T18:56:27.410Z,5.13
2024-04-08T18:59:01.540Z,5.18
2024-04-08T19:01:30.334Z,6.95
2024-04-08T19:04:00.084Z,5.28
2024-04-08T19:06:27.810Z,4.75
2024-04-08T19:08:58.951Z,5.10
2024-04-08T19:11:34.743Z,5.63
2024-04-08T19:14:11.672Z,5.32
2024-04-08T19:16:39.110Z,4.10
2024-04-08T19:19:12.337Z,4.85
2024-04-08T19:21:41.450Z,5.30
2024-04-08T19:24:13.097Z,4.30
2024-04-08T19:26:43.031Z,5.32
2024-04-08T19:29:12.944Z,4.68
2024-04-08T19:31:40.409Z,4.57
2024-04-08T19:34:10.183Z,5.45
2024-04-08T19:36:37.976Z,4.70
2024-04-08T19:39:08.664Z,5.40
2024-04-08T19:41:36.304Z,5.28
2024-04-08T19:44:08.631Z,4.47
2024-04-08T19:46:36.263Z,4.78
2024-04-08T19:49:06.048Z,5.60
2024-04-08T19:51:34.748Z,5.65
2024-04-08T19:54:05.751Z,5.28
2024-04-08T19:56:33.135Z,6.80
2024-04-08T19:59:03.471Z,6.72
2024-04-08T20:01:33.144Z,7.00
2024-04-08T20:04:07.126Z,8.23
2024-04-08T20:06:34.589Z,7.25
2024-04-08T20:09:05.494Z,5.75
2024-04-08T20:11:34.373Z,4.50
2024-04-08T20:14:04.896Z,5.15
2024-04-08T20:16:35.693Z,5.07
2024-04-08T20:19:06.298Z,5.70
2024-04-08T20:21:34.252Z,5.38
2024-04-08T20:24:05.646Z,5.38
2024-04-08T20:26:32.925Z,5.60
2024-04-08T20:29:02.634Z,4.38
2024-04-08T20:31:33.252Z,4.65
2024-04-08T20:34:06.917Z,3.88
2024-04-08T20:36:37.381Z,3.42
2024-04-08T20:39:07.832Z,3.55
2024-04-08T20:41:35.965Z,3.28
2024-04-08T20:44:06.222Z,2.55
2024-04-08T20:46:33.367Z,3.53
2024-04-08T20:49:06.197Z,2.92
2024-04-08T20:51:42.156Z,3.38
2024-04-08T20:54:15.792Z,3.05
2024-04-08T20:56:44.405Z,3.47
2024-04-08T20:59:14.083Z,3.80
2024-04-08T21:01:41.620Z,5.10
2024-04-08T21:04:14.452Z,3.05
2024-04-08T21:06:41.809Z,3.38
2024-04-08T21:09:11.690Z,3.30
2024-04-08T21:11:40.413Z,3.40
2024-04-08T21:14:12.330Z,3.85
2024-04-08T21:16:40.407Z,3.30
2024-04-08T21:19:13.577Z,3.50
2024-04-08T21:21:42.003Z,3.40
2024-04-08T21:24:12.359Z,3.28
2024-04-08T21:26:42.626Z,3.10
2024-04-08T21:29:10.202Z,3.70
2024-04-08T21:31:39.887Z,3.25
2024-04-08T21:34:10.794Z,3.22
2024-04-08T21:36:41.494Z,3.50
2024-04-08T21:39:09.733Z,3.33
2024-04-08T21:41:39.890Z,3.13
2024-04-08T21:44:07.164Z,3.22
2024-04-08T21:46:39.003Z,3.75
2024-04-08T21:49:06.858Z,2.88
2024-04-08T21:51:39.327Z,3.33
2024-04-08T21:54:07.610Z,3.55
2024-04-08T21:56:37.468Z,3.20
2024-04-08T21:59:05.126Z,3.15
2024-04-08T22:01:35.315Z,3.20
2024-04-08T22:04:03.602Z,2.78
2024-04-08T22:06:33.772Z,3.05
2024-04-08T22:09:04.609Z,2.70
2024-04-08T22:11:34.320Z,3.30
2024-04-08T22:14:01.919Z,2.35
2024-04-08T22:16:32.059Z,2.90
2024-04-08T22:18:59.327Z,2.92
2024-04-08T22:21:29.095Z,3.15
2024-04-08T22:23:57.291Z,2.45
2024-04-08T22:26:29.558Z,2.60
2024-04-08T22:28:57.590Z,3.00
2024-04-08T22:31:27.435Z,2.80
2024-04-08T22:33:55.326Z,2.55
2024-04-08T22:36:25.826Z,2.50
2024-04-08T22:38:53.735Z,2.95
2024-04-08T22:41:23.767Z,3.08
2024-04-08T22:43:55.990Z,2.65
2024-04-08T22:46:26.023Z,3.30
2024-04-08T22:48:54.939Z,2.70
2024-04-08T22:51:25.855Z,3.40
2024-04-08T22:53:53.172Z,2.67
2024-04-08T22:56:22.963Z,2.70
2024-04-08T22:58:50.840Z,2.78
2024-04-08T23:01:23.128Z,2.60
2024-04-08T23:03:51.830Z,2.65
2024-04-08T23:06:22.897Z,2.90
2024-04-08T23:08:52.386Z,2.97
2024-04-08T23:11:22.179Z,2.90
2024-04-08T23:14:46.853Z,2.80
2024-04-08T23:17:37.731Z,2.55
2024-04-08T23:20:06.888Z,2.90
2024-04-08T23:22:36.548Z,2.75
2024-04-08T23:25:04.538Z,3.47
2024-04-08T23:27:34.790Z,3.10
2024-04-08T23:30:03.627Z,3.53
2024-04-08T23:32:33.701Z,3.35
2024-04-08T23:35:05.287Z,2.72
2024-04-08T23:37:35.715Z,3.25
2024-04-08T23:40:05.623Z,3.10
2024-04-08T23:42:35.383Z,3.00
2024-04-08T23:45:04.612Z,2.80
2024-04-08T23:47:35.625Z,3.75
2024-04-08T23:50:08.876Z,3.03
2024-04-08T23:52:36.806Z,3.67
2024-04-08T23:55:08.263Z,3.28
2024-04-08T23:57:35.987Z,2.92
